createdAt,value
2023-04-21T00:02:03.523Z,12.20
2023-04-21T00:04:50.014Z,12.20
2023-04-21T00:07:37.769Z,12.20
2023-04-21T00:10:23.078Z,12.20
2023-04-21T00:13:09.311Z,12.20
2023-04-21T00:15:55.071Z,12.20
2023-04-21T00:18:40.582Z,12.10
2023-04-21T00:21:26.843Z,12.10
2023-04-21T00:24:12.162Z,12.10
2023-04-21T00:26:57.821Z,12.00
2023-04-21T00:29:43.572Z,12.00
2023-04-21T00:32:31.061Z,12.00
2023-04-21T00:35:16.630Z,12.10
2023-04-21T00:38:02.218Z,11.90
2023-04-21T00:40:47.782Z,11.80
2023-04-21T00:43:33.416Z,11.80
2023-04-21T00:46:18.960Z,11.90
2023-04-21T00:49:06.164Z,11.90
2023-04-21T00:51:52.179Z,11.90
2023-04-21T00:54:38.035Z,11.90
2023-04-21T00:57:23.789Z,12.00
2023-04-21T01:00:10.580Z,12.00
2023-04-21T01:02:56.812Z,12.00
2023-04-21T01:05:42.576Z,11.90
2023-04-21T01:08:31.231Z,11.90
2023-04-21T01:11:16.782Z,11.90
2023-04-21T01:14:02.492Z,11.80
2023-04-21T01:16:47.833Z,11.80
2023-04-21T01:19:37.082Z,11.70
2023-04-21T01:22:22.484Z,11.80
2023-04-21T01:25:08.968Z,11.70
2023-04-21T01:27:55.203Z,11.70
2023-04-21T01:30:40.932Z,11.70
2023-04-21T01:33:26.177Z,11.80
2023-04-21T01:36:11.905Z,11.80
2023-04-21T01:38:57.497Z,11.80
2023-04-21T01:41:43.088Z,11.80
2023-04-21T01:44:28.816Z,11.90
2023-04-21T01:47:14.387Z,11.90
2023-04-21T01:49:59.934Z,11.80
2023-04-21T01:52:45.556Z,11.80
2023-04-21T01:55:31.217Z,11.80
2023-04-21T01:58:16.758Z,11.80
2023-04-21T02:01:02.513Z,11.90
2023-04-21T02:03:48.264Z,11.90
2023-04-21T02:06:33.988Z,11.90
2023-04-21T02:09:19.983Z,11.80
2023-04-21T02:12:06.158Z,11.90
2023-04-21T02:14:51.554Z,11.80
2023-04-21T02:17:37.149Z,11.80
2023-04-21T02:20:22.759Z,11.80
2023-04-21T02:23:08.602Z,11.80
2023-04-21T02:25:54.268Z,11.70
2023-04-21T02:28:39.992Z,11.70
2023-04-21T02:31:26.175Z,11.60
2023-04-21T02:34:11.962Z,11.70
2023-04-21T02:36:57.727Z,11.60
2023-04-21T02:39:44.933Z,11.50
2023-04-21T02:42:30.314Z,11.50
2023-04-21T02:45:16.845Z,11.40
2023-04-21T02:48:04.493Z,11.30
2023-04-21T02:50:50.791Z,11.40
2023-04-21T02:53:36.418Z,11.50
2023-04-21T02:56:22.450Z,11.40
2023-04-21T02:59:08.048Z,11.40
2023-04-21T03:04:40.055Z,11.50
2023-04-21T03:35:06.577Z,11.50
2023-04-21T03:37:52.994Z,11.50
2023-04-21T03:40:39.719Z,11.50
2023-04-21T03:43:31.047Z,11.50
2023-04-21T03:46:22.174Z,11.40
2023-04-21T03:49:07.900Z,11.40
2023-04-21T03:51:53.558Z,11.30
2023-04-21T03:54:39.083Z,11.40
2023-04-21T03:57:24.696Z,11.40
2023-04-21T04:00:10.732Z,11.40
2023-04-21T04:05:45.063Z,11.50
2023-04-21T04:08:31.316Z,11.40
2023-04-21T04:14:02.837Z,11.40
2023-04-21T04:16:48.195Z,11.40
2023-04-21T04:19:33.632Z,11.20
2023-04-21T04:22:19.059Z,11.10
2023-04-21T04:25:05.444Z,11.20
2023-04-21T04:27:50.673Z,11.10
2023-04-21T04:30:37.000Z,11.10
2023-04-21T04:33:22.472Z,11.00
2023-04-21T04:36:07.873Z,11.00
2023-04-21T04:38:53.225Z,11.00
2023-04-21T04:41:39.056Z,10.90
2023-04-21T04:44:25.914Z,10.80
2023-04-21T04:47:11.312Z,10.80
2023-04-21T04:49:56.922Z,10.80
2023-04-21T04:52:44.871Z,10.70
2023-04-21T04:58:16.439Z,10.80
2023-04-21T05:03:48.261Z,10.80
2023-04-21T05:06:33.778Z,10.90
2023-04-21T05:09:19.344Z,10.90
2023-04-21T05:12:05.392Z,11.00
2023-04-21T05:14:51.143Z,10.90
2023-04-21T05:17:36.593Z,11.00
2023-04-21T05:20:22.965Z,11.10
2023-04-21T05:23:08.613Z,11.20
2023-04-21T05:25:54.332Z,11.20
2023-04-21T05:28:40.380Z,11.40
2023-04-21T05:31:26.006Z,11.30
2023-04-21T05:34:12.024Z,11.40
2023-04-21T05:36:57.325Z,11.50
2023-04-21T05:39:43.025Z,11.60
2023-04-21T05:42:28.729Z,11.60
2023-04-21T05:45:14.474Z,11.60
2023-04-21T05:47:59.968Z,11.90
2023-04-21T05:50:45.575Z,11.80
2023-04-21T05:53:31.250Z,11.90
2023-04-21T05:56:16.932Z,11.90
2023-04-21T05:59:02.436Z,12.00
2023-04-21T06:01:48.314Z,12.00
2023-04-21T06:04:34.068Z,12.10
2023-04-21T06:07:20.786Z,12.10
2023-04-21T06:10:06.453Z,12.10
2023-04-21T06:12:51.997Z,12.10
2023-04-21T06:15:37.658Z,12.10
2023-04-21T06:18:24.206Z,12.20
2023-04-21T06:21:10.619Z,12.30
2023-04-21T06:23:56.388Z,12.40
2023-04-21T06:26:41.991Z,12.30
2023-04-21T06:29:27.578Z,12.20
2023-04-21T06:32:13.526Z,12.30
2023-04-21T06:34:58.845Z,12.30
2023-04-21T06:37:44.494Z,12.40
2023-04-21T06:40:30.110Z,12.50
2023-04-21T06:43:16.399Z,12.40
2023-04-21T06:46:01.777Z,12.40
2023-04-21T06:48:47.343Z,12.40
2023-04-21T06:51:33.119Z,12.40
2023-04-21T06:54:18.633Z,12.40
2023-04-21T06:57:04.206Z,12.50
2023-04-21T06:59:49.804Z,12.60
2023-04-21T07:02:35.534Z,12.60
2023-04-21T07:05:20.910Z,12.70
2023-04-21T07:08:06.641Z,12.80
2023-04-21T07:10:52.311Z,12.90
2023-04-21T07:13:38.113Z,13.00
2023-04-21T07:16:24.562Z,13.10
2023-04-21T07:19:10.074Z,13.10
2023-04-21T07:21:55.833Z,13.20
2023-04-21T07:24:41.325Z,13.30
2023-04-21T07:27:26.944Z,13.30
2023-04-21T07:30:12.477Z,13.40
2023-04-21T07:32:58.180Z,13.50
2023-04-21T07:35:43.548Z,13.60
2023-04-21T07:38:29.865Z,13.60
2023-04-21T07:41:15.668Z,13.80
2023-04-21T07:44:01.351Z,13.80
2023-04-21T07:46:46.919Z,13.90
2023-04-21T07:49:32.461Z,14.00
2023-04-21T07:52:18.276Z,14.10
2023-04-21T07:55:04.325Z,14.10
2023-04-21T07:57:50.527Z,14.20
2023-04-21T08:00:36.266Z,14.30
2023-04-21T08:03:24.335Z,14.40
2023-04-21T08:06:10.419Z,14.40
2023-04-21T08:08:56.123Z,14.50
2023-04-21T08:11:41.850Z,14.50
2023-04-21T08:14:28.354Z,14.50
2023-04-21T08:20:17.137Z,14.60
2023-04-21T08:23:03.050Z,14.60
2023-04-21T08:25:48.459Z,14.70
2023-04-21T08:28:34.086Z,14.70
2023-04-21T08:31:20.090Z,14.80
2023-04-21T08:34:05.528Z,14.80
2023-04-21T08:36:51.040Z,14.80
2023-04-21T08:39:36.702Z,14.90
2023-04-21T08:42:22.388Z,14.90
2023-04-21T08:45:08.152Z,15.00
2023-04-21T08:47:55.452Z,15.00
2023-04-21T08:50:44.282Z,15.00
2023-04-21T08:53:29.540Z,15.00
2023-04-21T08:56:15.493Z,15.10
2023-04-21T08:59:00.800Z,15.10
2023-04-21T09:02:05.056Z,15.10
2023-04-21T09:04:52.273Z,15.10
2023-04-21T09:07:41.886Z,15.10
2023-04-21T09:10:27.504Z,15.20
2023-04-21T09:13:13.406Z,15.20
2023-04-21T09:16:01.105Z,15.30
2023-04-21T09:18:46.507Z,15.30
2023-04-21T09:21:32.406Z,15.40
2023-04-21T09:24:17.936Z,15.50
2023-04-21T09:27:04.852Z,15.60
2023-04-21T09:29:50.445Z,15.70
2023-04-21T09:32:39.842Z,15.80
2023-04-21T09:35:35.719Z,15.90
2023-04-21T09:38:22.310Z,16.00
2023-04-21T09:41:08.256Z,16.10
2023-04-21T09:43:54.059Z,16.20
2023-04-21T09:46:43.629Z,16.30
2023-04-21T09:49:30.011Z,16.30
2023-04-21T09:52:18.940Z,16.40
2023-04-21T09:55:08.885Z,16.40
2023-04-21T09:57:58.720Z,16.50
2023-04-21T10:00:44.465Z,16.60
2023-04-21T10:03:30.927Z,16.70
2023-04-21T10:06:16.858Z,16.80
2023-04-21T10:09:04.124Z,16.90
2023-04-21T10:11:49.957Z,17.50
2023-04-21T10:14:35.184Z,17.00
2023-04-21T10:17:27.925Z,17.10
2023-04-21T10:20:15.432Z,17.20
2023-04-21T10:23:01.041Z,17.30
2023-04-21T10:25:49.036Z,17.40
2023-04-21T10:28:41.656Z,17.40
2023-04-21T10:31:30.165Z,17.50
2023-04-21T10:34:16.487Z,17.60
2023-04-21T10:37:05.298Z,17.70
2023-04-21T10:39:54.922Z,17.80
2023-04-21T10:42:40.341Z,17.90
2023-04-21T10:45:26.113Z,17.90
2023-04-21T10:48:13.900Z,18.00
2023-04-21T10:50:59.143Z,18.10
2023-04-21T10:53:45.135Z,18.10
2023-04-21T10:56:30.466Z,18.10
2023-04-21T10:59:16.337Z,18.20
2023-04-21T11:02:06.339Z,18.20
2023-04-21T11:04:52.667Z,18.30
2023-04-21T11:07:38.374Z,18.30
2023-04-21T11:10:23.904Z,18.30
2023-04-21T11:13:09.513Z,18.40
2023-04-21T11:16:02.781Z,18.40
2023-04-21T11:18:48.352Z,18.40
2023-04-21T11:21:34.241Z,18.40
2023-04-21T11:24:20.852Z,18.50
2023-04-21T11:27:08.800Z,18.50
2023-04-21T11:29:54.515Z,18.60
2023-04-21T11:32:42.375Z,18.60
2023-04-21T11:35:27.637Z,18.70
2023-04-21T11:38:14.858Z,18.70
2023-04-21T11:41:00.839Z,18.70
2023-04-21T11:43:46.266Z,18.70
2023-04-21T11:46:37.278Z,16.30
2023-04-21T11:49:25.379Z,18.80
2023-04-21T11:52:10.766Z,18.80
2023-04-21T11:55:03.810Z,18.90
2023-04-21T11:57:51.213Z,19.00
2023-04-21T12:00:37.071Z,19.00
2023-04-21T12:03:23.801Z,19.00
2023-04-21T12:06:09.307Z,19.00
2023-04-21T12:08:56.600Z,19.10
2023-04-21T12:11:42.093Z,19.10
2023-04-21T12:14:27.818Z,19.20
2023-04-21T12:17:13.310Z,19.20
2023-04-21T12:20:06.016Z,19.20
2023-04-21T12:22:52.538Z,19.30
2023-04-21T12:25:37.933Z,19.30
2023-04-21T12:28:23.546Z,19.30
2023-04-21T12:31:08.971Z,19.30
2023-04-21T12:33:54.879Z,19.40
2023-04-21T12:36:40.580Z,19.50
2023-04-21T12:39:26.036Z,19.60
2023-04-21T12:42:11.381Z,19.60
2023-04-21T12:44:57.001Z,19.60
2023-04-21T12:47:46.255Z,19.70
2023-04-21T12:50:32.533Z,19.70
2023-04-21T12:53:17.927Z,19.70
2023-04-21T12:56:05.232Z,19.70
2023-04-21T12:58:51.211Z,19.70
2023-04-21T13:01:40.708Z,19.70
2023-04-21T13:04:26.561Z,19.70
2023-04-21T13:07:12.516Z,19.80
2023-04-21T13:09:57.896Z,20.00
2023-04-21T13:12:44.337Z,20.10
2023-04-21T13:15:29.761Z,20.20
2023-04-21T13:18:15.090Z,20.40
2023-04-21T13:21:01.264Z,20.60
2023-04-21T13:23:46.891Z,20.70
2023-04-21T13:26:35.654Z,20.90
2023-04-21T13:29:21.364Z,21.00
2023-04-21T13:32:07.744Z,21.00
2023-04-21T13:34:54.703Z,21.00
2023-04-21T13:37:40.910Z,21.00
2023-04-21T13:40:26.703Z,20.90
2023-04-21T13:43:12.651Z,20.90
2023-04-21T13:45:58.347Z,20.90
2023-04-21T13:48:45.289Z,20.80
2023-04-21T13:51:32.430Z,20.80
2023-04-21T13:54:17.980Z,20.80
2023-04-21T13:57:03.700Z,20.80
2023-04-21T13:59:50.088Z,20.90
2023-04-21T14:02:36.133Z,20.90
2023-04-21T14:05:21.943Z,21.10
2023-04-21T14:08:08.091Z,19.40
2023-04-21T14:10:53.719Z,21.50
2023-04-21T14:13:45.373Z,21.70
2023-04-21T14:16:38.677Z,21.80
2023-04-21T14:19:24.688Z,21.90
2023-04-21T14:22:10.292Z,21.90
2023-04-21T14:24:56.017Z,22.00
2023-04-21T14:27:41.700Z,22.10
2023-04-21T14:30:27.072Z,24.50
2023-04-21T14:33:12.860Z,22.50
2023-04-21T14:35:58.234Z,22.70
2023-04-21T14:38:44.182Z,22.80
2023-04-21T14:41:29.903Z,22.90
2023-04-21T14:44:16.227Z,23.00
2023-04-21T14:47:09.987Z,23.20
2023-04-21T14:49:56.685Z,23.20
2023-04-21T14:52:42.741Z,23.10
2023-04-21T14:55:28.299Z,23.00
2023-04-21T14:58:13.963Z,25.00
2023-04-21T15:00:59.574Z,22.60
2023-04-21T15:03:45.314Z,22.40
2023-04-21T15:06:31.704Z,22.50
2023-04-21T15:09:17.007Z,22.60
2023-04-21T15:12:02.844Z,22.70
2023-04-21T15:14:48.345Z,22.80
2023-04-21T15:17:34.004Z,23.00
2023-04-21T15:20:22.588Z,23.10
2023-04-21T15:23:14.977Z,23.10
2023-04-21T15:26:00.273Z,23.00
2023-04-21T15:28:45.834Z,22.80
2023-04-21T15:31:31.613Z,22.70
2023-04-21T15:34:17.189Z,22.60
2023-04-21T15:37:02.925Z,22.50
2023-04-21T15:39:48.588Z,22.60
2023-04-21T15:42:34.064Z,22.60
2023-04-21T15:45:19.928Z,22.70
2023-04-21T15:48:05.763Z,22.70
2023-04-21T15:50:51.352Z,22.60
2023-04-21T15:53:37.496Z,22.70
2023-04-21T15:56:23.066Z,22.60
2023-04-21T15:59:09.021Z,22.40
2023-04-21T16:01:57.204Z,22.30
2023-04-21T16:04:43.530Z,22.00
2023-04-21T16:07:29.722Z,21.80
2023-04-21T16:10:15.442Z,21.60
2023-04-21T16:13:01.334Z,21.50
2023-04-21T16:15:46.795Z,21.30
2023-04-21T16:18:32.555Z,21.10
2023-04-21T16:21:18.311Z,21.00
2023-04-21T16:24:06.881Z,20.90
2023-04-21T16:26:52.949Z,20.90
2023-04-21T16:29:38.686Z,20.90
2023-04-21T16:32:24.177Z,19.30
2023-04-21T16:35:10.789Z,20.80
2023-04-21T16:37:56.595Z,20.70
2023-04-21T16:40:41.936Z,20.60
2023-04-21T16:43:27.449Z,20.60
2023-04-21T16:46:13.136Z,20.50
2023-04-21T16:48:58.747Z,20.50
2023-04-21T16:51:45.529Z,20.50
2023-04-21T16:54:31.001Z,20.40
2023-04-21T16:57:16.279Z,20.30
2023-04-21T17:00:02.030Z,20.40
2023-04-21T17:02:47.364Z,20.30
2023-04-21T17:05:33.241Z,20.30
2023-04-21T17:08:18.671Z,20.30
2023-04-21T17:11:04.336Z,20.30
2023-04-21T17:13:49.851Z,20.30
2023-04-21T17:16:35.734Z,20.30
2023-04-21T17:19:21.539Z,20.20
2023-04-21T17:22:07.446Z,20.20
2023-04-21T17:24:54.266Z,20.20
2023-04-21T17:27:42.024Z,20.20
2023-04-21T17:30:27.563Z,20.20
2023-04-21T17:33:17.284Z,20.20
2023-04-21T17:36:03.729Z,20.20
2023-04-21T17:38:49.545Z,19.70
2023-04-21T17:41:34.870Z,20.20
2023-04-21T17:44:20.853Z,20.20
2023-04-21T17:47:08.386Z,20.20
2023-04-21T17:49:54.029Z,20.20
2023-04-21T17:52:40.208Z,19.30
2023-04-21T17:55:26.251Z,19.70
2023-04-21T17:58:12.576Z,20.10
2023-04-21T18:00:58.446Z,20.10
2023-04-21T18:03:44.297Z,20.10
2023-04-21T18:06:29.978Z,20.10
2023-04-21T18:09:15.460Z,20.00
2023-04-21T18:12:03.782Z,20.00
2023-04-21T18:14:49.383Z,20.00
2023-04-21T18:17:37.030Z,20.00
2023-04-21T18:20:22.613Z,20.00
2023-04-21T18:23:09.073Z,20.00
2023-04-21T18:25:54.588Z,20.00
2023-04-21T18:28:40.407Z,20.00
2023-04-21T18:31:26.461Z,20.00
2023-04-21T18:34:14.291Z,20.00
2023-04-21T18:36:59.909Z,20.00
2023-04-21T18:39:45.800Z,20.00
2023-04-21T18:42:31.105Z,20.00
2023-04-21T18:45:16.885Z,19.90
2023-04-21T18:48:02.341Z,19.90
2023-04-21T18:50:47.993Z,19.80
2023-04-21T18:53:33.376Z,19.70
2023-04-21T18:56:19.109Z,19.60
2023-04-21T18:59:05.035Z,19.40
2023-04-21T19:01:50.591Z,19.30
2023-04-21T19:04:36.379Z,19.30
2023-04-21T19:07:22.223Z,19.30
2023-04-21T19:10:08.422Z,19.30
2023-04-21T19:12:54.232Z,19.20
2023-04-21T19:15:39.654Z,19.10
2023-04-21T19:18:25.487Z,19.00
2023-04-21T19:21:13.552Z,19.00
2023-04-21T19:23:59.536Z,18.90
2023-04-21T19:26:45.651Z,18.90
2023-04-21T19:29:32.065Z,18.90
2023-04-21T19:32:17.969Z,18.80
2023-04-21T19:35:04.292Z,18.90
2023-04-21T19:37:49.957Z,19.00
2023-04-21T19:40:35.418Z,19.10
2023-04-21T19:43:21.639Z,19.10
2023-04-21T19:46:07.128Z,19.20
2023-04-21T19:48:53.038Z,19.10
2023-04-21T19:51:39.458Z,19.10
2023-04-21T19:54:24.799Z,19.00
2023-04-21T19:57:10.533Z,19.00
2023-04-21T19:59:56.066Z,19.10
2023-04-21T20:02:42.330Z,19.10
2023-04-21T20:05:28.406Z,19.10
2023-04-21T20:08:14.163Z,19.10
2023-04-21T20:10:59.575Z,19.00
2023-04-21T20:13:45.814Z,18.90
2023-04-21T20:16:31.916Z,18.80
2023-04-21T20:19:20.455Z,18.60
2023-04-21T20:22:06.798Z,18.40
2023-04-21T20:24:54.067Z,18.30
2023-04-21T20:27:39.536Z,18.20
2023-04-21T20:30:24.989Z,18.10
2023-04-21T20:33:10.388Z,18.00
2023-04-21T20:35:56.964Z,18.00
2023-04-21T20:38:42.330Z,17.90
2023-04-21T20:41:28.342Z,18.00
2023-04-21T20:44:14.347Z,17.90
2023-04-21T20:47:00.117Z,18.00
2023-04-21T20:49:47.272Z,18.00
2023-04-21T20:52:32.707Z,18.00
2023-04-21T20:55:18.629Z,18.00
2023-04-21T20:58:04.639Z,18.00
2023-04-21T21:00:50.353Z,18.00
2023-04-21T21:03:36.320Z,18.10
2023-04-21T21:06:21.734Z,18.10
2023-04-21T21:09:07.459Z,18.10
2023-04-21T21:11:53.189Z,18.10
2023-04-21T21:14:38.902Z,17.90
2023-04-21T21:17:24.176Z,17.80
2023-04-21T21:20:10.245Z,17.80
2023-04-21T21:22:55.957Z,17.70
2023-04-21T21:25:41.626Z,17.60
2023-04-21T21:28:27.217Z,17.60
2023-04-21T21:31:12.992Z,17.50
2023-04-21T21:33:58.734Z,17.40
2023-04-21T21:36:44.284Z,17.30
2023-04-21T21:39:29.965Z,17.30
2023-04-21T21:42:15.678Z,17.30
2023-04-21T21:45:01.209Z,17.20
2023-04-21T21:47:46.824Z,17.20
2023-04-21T21:50:32.483Z,17.20
2023-04-21T21:53:18.192Z,17.20
2023-04-21T21:56:03.892Z,17.10
2023-04-21T21:58:49.381Z,17.10
2023-04-21T22:01:35.017Z,17.00
2023-04-21T22:04:20.909Z,17.10
2023-04-21T22:07:06.932Z,17.20
2023-04-21T22:09:52.536Z,17.20
2023-04-21T22:12:38.314Z,17.10
2023-04-21T22:15:23.731Z,17.20
2023-04-21T22:18:09.800Z,17.20
2023-04-21T22:20:55.568Z,17.20
2023-04-21T22:23:41.044Z,17.10
2023-04-21T22:26:26.422Z,17.10
2023-04-21T22:29:12.103Z,17.10
2023-04-21T22:31:58.134Z,17.10
2023-04-21T22:34:43.801Z,17.10
2023-04-21T22:37:29.332Z,17.00
2023-04-21T22:40:14.989Z,17.00
2023-04-21T22:43:00.874Z,16.90
2023-04-21T22:45:46.371Z,16.90
2023-04-21T22:48:32.850Z,16.80
2023-04-21T22:51:21.533Z,16.80
2023-04-21T22:54:06.834Z,16.70
2023-04-21T22:56:52.636Z,16.70
2023-04-21T22:59:38.466Z,16.70
2023-04-21T23:02:24.374Z,16.70
2023-04-21T23:05:09.973Z,16.60
2023-04-21T23:07:55.621Z,16.60
2023-04-21T23:10:41.206Z,16.50
2023-04-21T23:13:26.725Z,16.50
2023-04-21T23:16:12.429Z,16.40
2023-04-21T23:18:57.838Z,16.40
2023-04-21T23:21:43.411Z,16.30
2023-04-21T23:24:29.128Z,16.30
2023-04-21T23:27:14.839Z,16.20
2023-04-21T23:30:00.525Z,16.10
2023-04-21T23:32:46.686Z,16.10
2023-04-21T23:35:32.178Z,16.00
2023-04-21T23:38:17.781Z,16.00
2023-04-21T23:41:03.357Z,15.90
2023-04-21T23:43:49.173Z,15.90
2023-04-21T23:46:34.778Z,15.80
2023-04-21T23:49:20.427Z,15.80
2023-04-21T23:52:05.845Z,15.80
2023-04-21T23:54:51.535Z,15.70
2023-04-21T23:57:38.208Z,15.70
